createdAt,value
2019-03-29T00:00:23.565Z,74.49
2019-03-29T00:02:54.642Z,74.11
2019-03-29T00:05:24.275Z,74.79
2019-03-29T00:07:53.903Z,74.43
2019-03-29T00:10:23.557Z,75.28
2019-03-29T00:12:53.263Z,74.74
2019-03-29T00:15:22.790Z,74.64
2019-03-29T00:17:52.414Z,73.79
2019-03-29T00:20:22.040Z,73.63
2019-03-29T00:22:52.797Z,73.63
2019-03-29T00:25:22.425Z,73.46
2019-03-29T00:27:52.058Z,73.89
2019-03-29T00:30:22.124Z,73.45
2019-03-29T00:32:51.919Z,73.36
2019-03-29T00:35:21.657Z,73.19
2019-03-29T00:37:53.818Z,74.03
2019-03-29T00:40:22.750Z,74.42
2019-03-29T00:42:52.276Z,75.54
2019-03-29T00:45:21.894Z,75.64
2019-03-29T00:47:51.635Z,74.83
2019-03-29T00:50:21.256Z,75.76
2019-03-29T00:52:50.888Z,73.94
2019-03-29T00:55:20.955Z,74.02
2019-03-29T00:57:50.755Z,74.24
2019-03-29T01:00:20.382Z,73.97
2019-03-29T01:02:49.911Z,74.19
2019-03-29T01:05:20.225Z,73.55
2019-03-29T01:07:50.704Z,73.39
2019-03-29T01:10:20.348Z,72.63
2019-03-29T01:12:50.054Z,72.28
2019-03-29T01:15:19.571Z,72.47
2019-03-29T01:17:49.337Z,72.24
2019-03-29T01:20:18.942Z,73.00
2019-03-29T01:22:48.585Z,72.27
2019-03-29T01:25:18.299Z,72.33
2019-03-29T01:27:47.819Z,72.53
2019-03-29T01:30:17.346Z,72.84
2019-03-29T01:32:46.980Z,73.03
2019-03-29T01:35:16.707Z,72.75
2019-03-29T01:37:47.462Z,72.94
2019-03-29T01:40:17.086Z,73.26
2019-03-29T01:42:46.717Z,73.45
2019-03-29T01:45:16.344Z,74.16
2019-03-29T01:47:45.869Z,74.26
2019-03-29T01:50:15.497Z,72.96
2019-03-29T01:52:45.862Z,73.59
2019-03-29T01:55:15.567Z,73.56
2019-03-29T01:57:45.304Z,73.72
2019-03-29T02:00:18.207Z,72.72
2019-03-29T02:02:47.836Z,72.20
2019-03-29T02:05:17.460Z,72.25
2019-03-29T02:07:47.184Z,72.56
2019-03-29T02:10:16.914Z,72.85
2019-03-29T02:12:46.643Z,73.31
2019-03-29T02:15:16.275Z,73.39
2019-03-29T02:17:45.805Z,73.48
2019-03-29T02:20:15.325Z,74.34
2019-03-29T02:22:44.958Z,74.32
2019-03-29T02:25:15.324Z,73.82
2019-03-29T02:27:45.846Z,73.73
2019-03-29T02:30:15.382Z,71.45
2019-03-29T02:32:45.002Z,72.22
2019-03-29T02:35:14.736Z,72.64
2019-03-29T02:37:44.357Z,72.80
2019-03-29T02:40:13.988Z,72.13
2019-03-29T02:42:43.622Z,72.08
2019-03-29T02:45:13.249Z,71.76
2019-03-29T02:47:42.733Z,72.19
2019-03-29T02:50:12.243Z,71.43
2019-03-29T02:52:41.927Z,71.43
2019-03-29T02:55:11.446Z,69.94
2019-03-29T02:57:41.085Z,69.17
2019-03-29T03:00:10.810Z,70.31
2019-03-29T03:02:40.391Z,70.02
2019-03-29T03:05:10.467Z,69.49
2019-03-29T03:07:41.117Z,69.22
2019-03-29T03:10:11.377Z,69.55
2019-03-29T03:12:41.093Z,69.73
2019-03-29T03:15:10.702Z,71.27
2019-03-29T03:17:41.488Z,71.20
2019-03-29T03:20:15.399Z,70.16
2019-03-29T03:22:45.540Z,71.33
2019-03-29T03:25:15.168Z,71.31
2019-03-29T03:27:44.788Z,71.35
2019-03-29T03:30:14.335Z,71.36
2019-03-29T03:32:43.885Z,71.44
2019-03-29T03:35:13.481Z,71.50
2019-03-29T03:37:43.002Z,71.46
2019-03-29T03:40:12.515Z,71.32
2019-03-29T03:42:42.059Z,72.26
2019-03-29T03:45:11.672Z,71.95
2019-03-29T03:47:41.231Z,72.34
2019-03-29T03:50:25.978Z,71.76
2019-03-29T03:52:55.493Z,71.76
2019-03-29T03:55:25.026Z,72.28
2019-03-29T03:57:57.752Z,71.59
2019-03-29T04:00:45.543Z,70.74
2019-03-29T04:03:15.067Z,70.50
2019-03-29T04:05:44.599Z,70.20
2019-03-29T04:08:14.119Z,69.78
2019-03-29T04:10:43.677Z,70.55
2019-03-29T04:13:13.377Z,70.76
2019-03-29T04:15:43.111Z,70.87
2019-03-29T04:18:15.712Z,70.71
2019-03-29T04:20:43.900Z,70.69
2019-03-29T04:23:13.432Z,71.57
2019-03-29T04:25:42.978Z,69.38
2019-03-29T04:28:12.480Z,69.78
2019-03-29T04:30:42.109Z,66.20
2019-03-29T04:33:11.661Z,66.10
2019-03-29T04:35:41.251Z,61.06
2019-03-29T04:38:10.885Z,60.82
2019-03-29T04:40:40.515Z,57.69
2019-03-29T04:43:10.138Z,56.38
2019-03-29T04:45:39.763Z,54.77
2019-03-29T04:48:09.294Z,54.28
2019-03-29T04:50:39.025Z,54.19
2019-03-29T04:53:08.651Z,53.49
2019-03-29T04:55:38.374Z,54.67
2019-03-29T04:58:07.914Z,53.00
2019-03-29T05:00:37.526Z,54.00
2019-03-29T05:03:07.158Z,54.00
2019-03-29T05:05:36.894Z,52.11
2019-03-29T05:08:06.723Z,49.90
2019-03-29T05:10:36.347Z,52.15
2019-03-29T05:13:06.999Z,52.40
2019-03-29T05:15:36.634Z,50.35
2019-03-29T05:18:06.260Z,50.09
2019-03-29T05:20:35.940Z,49.24
2019-03-29T05:23:05.497Z,52.70
2019-03-29T05:25:35.145Z,48.31
2019-03-29T05:28:04.873Z,49.85
2019-03-29T05:30:34.607Z,48.91
2019-03-29T05:33:04.229Z,46.57
2019-03-29T05:35:33.702Z,48.74
2019-03-29T05:38:03.286Z,45.87
2019-03-29T05:40:35.212Z,44.67
2019-03-29T05:43:04.172Z,43.98
2019-03-29T05:45:33.726Z,47.17
2019-03-29T05:48:03.330Z,45.63
2019-03-29T05:50:33.155Z,47.39
2019-03-29T05:53:02.680Z,43.65
2019-03-29T05:55:33.083Z,45.25
2019-03-29T05:58:03.878Z,46.86
2019-03-29T06:00:33.510Z,44.88
2019-03-29T06:03:03.431Z,44.68
2019-03-29T06:05:33.178Z,42.35
2019-03-29T06:08:02.807Z,42.77
2019-03-29T06:10:32.437Z,41.28
2019-03-29T06:13:02.263Z,42.76
2019-03-29T06:15:31.995Z,40.30
2019-03-29T06:18:01.565Z,41.00
2019-03-29T06:20:31.168Z,40.68
2019-03-29T06:23:00.733Z,44.66
2019-03-29T06:25:30.865Z,41.41
2019-03-29T06:28:00.328Z,37.63
2019-03-29T06:30:30.383Z,34.73
2019-03-29T06:33:00.100Z,32.32
2019-03-29T06:35:34.551Z,34.01
2019-03-29T06:38:04.480Z,34.55
2019-03-29T06:40:35.236Z,33.64
2019-03-29T06:43:04.861Z,33.57
2019-03-29T06:45:47.341Z,32.19
2019-03-29T06:48:06.055Z,35.31
2019-03-29T06:50:35.722Z,35.16
2019-03-29T06:53:05.520Z,32.22
2019-03-29T06:55:35.248Z,32.15
2019-03-29T06:58:04.876Z,30.39
2019-03-29T07:00:34.413Z,27.33
2019-03-29T07:03:04.126Z,27.68
2019-03-29T07:05:33.766Z,29.39
2019-03-29T07:08:03.795Z,27.11
2019-03-29T07:10:33.530Z,26.80
2019-03-29T07:13:03.051Z,28.18
2019-03-29T07:15:32.632Z,30.74
2019-03-29T07:18:02.318Z,30.23
2019-03-29T07:20:32.036Z,27.34
2019-03-29T07:23:01.763Z,25.82
2019-03-29T07:25:31.461Z,21.15
2019-03-29T07:28:01.229Z,22.97
2019-03-29T07:30:30.863Z,21.38
2019-03-29T07:33:00.477Z,19.38
2019-03-29T07:35:30.223Z,21.55
2019-03-29T07:38:00.048Z,18.31
2019-03-29T07:40:29.772Z,18.22
2019-03-29T07:42:59.401Z,20.60
2019-03-29T07:45:29.034Z,18.48
2019-03-29T07:47:58.555Z,18.95
2019-03-29T07:50:28.182Z,18.34
2019-03-29T07:52:57.751Z,18.97
2019-03-29T07:55:27.431Z,18.30
2019-03-29T07:57:57.169Z,19.78
2019-03-29T08:00:27.818Z,17.63
2019-03-29T08:02:57.349Z,16.60
2019-03-29T08:05:28.105Z,17.45
2019-03-29T08:07:57.764Z,25.80
2019-03-29T08:10:31.008Z,28.40
2019-03-29T08:12:59.781Z,25.71
2019-03-29T08:15:29.378Z,22.58
2019-03-29T08:18:01.583Z,23.81
2019-03-29T08:20:42.000Z,24.45
2019-03-29T08:23:01.933Z,21.53
2019-03-29T08:25:31.567Z,19.02
2019-03-29T08:28:01.294Z,19.43
2019-03-29T08:30:31.029Z,21.79
2019-03-29T08:33:00.757Z,20.97
2019-03-29T08:35:30.378Z,19.04
2019-03-29T08:38:00.011Z,20.38
2019-03-29T08:40:29.740Z,17.28
2019-03-29T08:43:00.495Z,16.83
2019-03-29T08:45:30.120Z,17.29
2019-03-29T08:47:59.849Z,19.95
2019-03-29T08:50:29.485Z,18.02
2019-03-29T08:52:59.210Z,15.87
2019-03-29T08:55:28.726Z,20.00
2019-03-29T08:57:58.360Z,17.25
2019-03-29T09:00:31.812Z,15.41
2019-03-29T09:03:01.549Z,16.86
2019-03-29T09:05:32.366Z,17.31
2019-03-29T09:08:01.982Z,17.64
2019-03-29T09:10:32.743Z,19.26
2019-03-29T09:13:04.495Z,17.82
2019-03-29T09:15:33.636Z,17.25
2019-03-29T09:18:03.360Z,16.61
2019-03-29T09:20:34.598Z,17.89
2019-03-29T09:23:04.592Z,17.82
2019-03-29T09:25:34.190Z,17.52
2019-03-29T09:28:03.830Z,17.75
2019-03-29T09:30:33.510Z,17.72
2019-03-29T09:33:03.795Z,17.62
2019-03-29T09:35:33.524Z,14.82
2019-03-29T09:38:03.147Z,16.78
2019-03-29T09:40:32.876Z,17.39
2019-03-29T09:43:09.605Z,17.22
2019-03-29T09:45:33.813Z,17.49
2019-03-29T09:48:03.395Z,17.39
2019-03-29T09:50:32.986Z,24.38
2019-03-29T09:53:03.574Z,28.12
2019-03-29T09:55:33.105Z,28.40
2019-03-29T09:58:02.657Z,28.14
2019-03-29T10:00:32.349Z,28.41
2019-03-29T10:03:01.830Z,22.68
2019-03-29T10:05:31.763Z,22.29
2019-03-29T10:08:01.550Z,22.77
2019-03-29T10:10:34.392Z,23.68
2019-03-29T10:13:02.535Z,19.45
2019-03-29T10:15:32.266Z,15.66
2019-03-29T10:18:01.903Z,18.55
2019-03-29T10:20:31.533Z,15.90
2019-03-29T10:23:01.371Z,16.33
2019-03-29T10:25:31.087Z,13.66
2019-03-29T10:28:00.923Z,14.47
2019-03-29T10:30:41.804Z,17.60
2019-03-29T10:33:11.532Z,13.63
2019-03-29T10:35:51.581Z,17.25
2019-03-29T10:38:12.629Z,15.35
2019-03-29T10:40:42.255Z,16.00
2019-03-29T10:43:11.782Z,14.73
2019-03-29T10:45:41.415Z,13.80
2019-03-29T10:48:10.934Z,14.37
2019-03-29T10:50:40.565Z,15.24
2019-03-29T10:53:11.134Z,18.33
2019-03-29T10:55:40.843Z,20.31
2019-03-29T10:58:10.501Z,16.96
2019-03-29T11:00:40.607Z,22.13
2019-03-29T11:03:10.247Z,19.11
2019-03-29T11:05:39.768Z,16.69
2019-03-29T11:08:11.793Z,13.32
2019-03-29T11:10:40.713Z,11.40
2019-03-29T11:13:13.569Z,14.37
2019-03-29T11:15:41.748Z,13.19
2019-03-29T11:18:11.355Z,12.24
2019-03-29T11:20:40.919Z,15.36
2019-03-29T11:23:10.409Z,18.17
2019-03-29T11:25:40.069Z,18.65
2019-03-29T11:28:09.640Z,21.60
2019-03-29T11:30:42.645Z,19.31
2019-03-29T11:33:10.679Z,18.39
2019-03-29T11:35:40.213Z,21.14
2019-03-29T11:38:09.928Z,20.13
2019-03-29T11:40:39.672Z,17.50
2019-03-29T11:43:09.387Z,17.99
2019-03-29T11:45:38.920Z,14.66
2019-03-29T11:48:09.663Z,17.76
2019-03-29T11:50:39.414Z,15.10
2019-03-29T11:53:09.141Z,12.26
2019-03-29T11:55:38.759Z,13.06
2019-03-29T11:58:08.387Z,15.12
2019-03-29T12:00:38.224Z,14.49
2019-03-29T12:03:09.363Z,15.03
2019-03-29T12:05:40.349Z,12.53
2019-03-29T12:08:09.929Z,11.43
2019-03-29T12:10:39.552Z,8.98
2019-03-29T12:13:09.224Z,13.66
2019-03-29T12:15:39.158Z,13.01
2019-03-29T12:18:08.789Z,14.62
2019-03-29T12:20:38.615Z,15.68
2019-03-29T12:23:08.463Z,13.29
2019-03-29T12:25:38.097Z,16.95
2019-03-29T12:28:07.703Z,18.22
2019-03-29T12:30:37.347Z,20.08
2019-03-29T12:33:07.082Z,20.23
2019-03-29T12:35:36.803Z,17.93
2019-03-29T12:38:06.417Z,18.52
2019-03-29T12:40:36.145Z,19.03
2019-03-29T12:43:05.884Z,21.76
2019-03-29T12:45:35.960Z,19.74
2019-03-29T12:48:05.764Z,22.95
2019-03-29T12:50:35.481Z,20.76
2019-03-29T12:53:05.021Z,20.76
2019-03-29T12:55:34.638Z,19.99
2019-03-29T12:58:05.285Z,21.58
2019-03-29T13:00:35.017Z,23.04
2019-03-29T13:03:04.646Z,21.25
2019-03-29T13:05:34.272Z,22.82
2019-03-29T13:08:03.903Z,20.73
2019-03-29T13:10:33.625Z,19.15
2019-03-29T13:13:03.255Z,18.10
2019-03-29T13:15:32.886Z,16.30
2019-03-29T13:18:02.407Z,16.11
2019-03-29T13:20:33.055Z,14.24
2019-03-29T13:23:02.806Z,16.25
2019-03-29T13:25:32.421Z,16.50
2019-03-29T13:28:02.045Z,14.64
2019-03-29T13:30:31.782Z,14.30
2019-03-29T13:33:01.507Z,17.00
2019-03-29T13:35:31.320Z,17.45
2019-03-29T13:38:00.869Z,17.75
2019-03-29T13:40:31.523Z,18.18
2019-03-29T13:43:01.253Z,16.35
2019-03-29T13:45:30.871Z,17.35
2019-03-29T13:48:00.292Z,16.18
2019-03-29T13:50:29.929Z,17.80
2019-03-29T13:52:59.451Z,18.59
2019-03-29T13:55:28.980Z,18.48
2019-03-29T13:57:58.608Z,19.35
2019-03-29T14:00:28.336Z,19.60
2019-03-29T14:02:57.968Z,19.05
2019-03-29T14:05:27.603Z,19.56
2019-03-29T14:07:57.217Z,19.56
2019-03-29T14:10:26.853Z,20.33
2019-03-29T14:12:56.577Z,23.59
2019-03-29T14:15:26.389Z,23.44
2019-03-29T14:17:56.142Z,21.22
2019-03-29T14:20:33.135Z,22.75
2019-03-29T14:23:03.269Z,21.80
2019-03-29T14:25:33.000Z,23.62
2019-03-29T14:28:02.627Z,25.07
2019-03-29T14:30:32.259Z,24.51
2019-03-29T14:33:01.894Z,22.91
2019-03-29T14:35:31.721Z,21.26
2019-03-29T14:38:01.443Z,21.90
2019-03-29T14:40:31.079Z,20.62
2019-03-29T14:43:00.865Z,22.17
2019-03-29T14:45:30.552Z,23.11
2019-03-29T14:48:00.375Z,22.59
2019-03-29T14:50:29.990Z,23.12
2019-03-29T14:52:59.633Z,21.72
2019-03-29T14:55:29.259Z,23.09
2019-03-29T14:57:58.986Z,23.49
2019-03-29T15:00:39.399Z,25.33
2019-03-29T15:03:09.082Z,26.01
2019-03-29T15:05:38.711Z,25.74
2019-03-29T15:08:08.337Z,25.80
2019-03-29T15:10:37.944Z,25.56
2019-03-29T15:13:07.488Z,26.91
2019-03-29T15:15:37.227Z,27.69
2019-03-29T15:18:06.854Z,28.20
2019-03-29T15:20:36.374Z,28.73
2019-03-29T15:23:06.109Z,28.78
2019-03-29T15:25:35.748Z,29.04
2019-03-29T15:28:05.360Z,29.19
2019-03-29T15:30:35.000Z,29.20
2019-03-29T15:33:06.355Z,29.58
2019-03-29T15:35:35.982Z,29.77
2019-03-29T15:38:05.714Z,31.78
2019-03-29T15:40:36.480Z,32.31
2019-03-29T15:43:39.436Z,33.11
2019-03-29T15:49:28.198Z,35.44
2019-03-29T15:55:16.744Z,37.11
2019-03-29T16:04:39.760Z,39.65
2019-03-29T16:10:27.474Z,39.93
2019-03-29T16:16:15.542Z,40.82
2019-03-29T16:22:06.056Z,41.76
2019-03-29T16:27:53.768Z,41.83
2019-03-29T16:33:41.999Z,43.04
2019-03-29T16:39:19.629Z,42.89
2019-03-29T16:45:08.176Z,43.84
2019-03-29T16:50:51.002Z,44.78
2019-03-29T16:56:39.243Z,44.93
2019-03-29T17:06:02.578Z,45.13
2019-03-29T17:12:02.883Z,45.04
2019-03-29T17:18:03.205Z,45.45
2019-03-29T17:24:03.306Z,45.74
2019-03-29T17:30:04.168Z,45.92
2019-03-29T17:36:04.054Z,45.54
2019-03-29T17:42:04.036Z,45.91
2019-03-29T17:48:05.018Z,46.71
2019-03-29T17:54:05.011Z,46.76
2019-03-29T18:00:07.988Z,46.64
2019-03-29T18:09:20.865Z,47.01
2019-03-29T18:14:57.948Z,47.61
2019-03-29T18:20:48.134Z,48.39
2019-03-29T18:26:36.298Z,47.64
2019-03-29T18:32:17.195Z,47.55
2019-03-29T18:38:06.550Z,48.23
2019-03-29T18:43:54.884Z,48.27
2019-03-29T18:49:43.536Z,48.61
2019-03-29T18:55:31.676Z,48.71
2019-03-29T19:01:20.450Z,48.52
2019-03-29T19:10:40.111Z,48.43
2019-03-29T19:16:41.015Z,48.49
2019-03-29T19:22:41.151Z,48.68
2019-03-29T19:28:40.950Z,48.08
2019-03-29T19:34:41.448Z,48.41
2019-03-29T19:40:41.550Z,48.47
2019-03-29T19:46:43.918Z,48.66
2019-03-29T19:52:43.921Z,48.74
2019-03-29T19:58:44.058Z,48.30
2019-03-29T20:04:44.552Z,48.75
2019-03-29T20:13:59.956Z,48.56
2019-03-29T20:19:37.607Z,48.79
2019-03-29T20:25:26.668Z,49.20
2019-03-29T20:31:14.810Z,49.51
2019-03-29T20:37:02.450Z,49.27
2019-03-29T20:42:50.208Z,49.91
2019-03-29T20:48:38.627Z,50.45
2019-03-29T20:54:27.589Z,50.76
2019-03-29T21:00:16.321Z,50.70
2019-03-29T21:06:04.693Z,50.60
2019-03-29T21:15:17.286Z,51.74
2019-03-29T21:21:17.090Z,52.13
2019-03-29T21:27:17.309Z,52.10
2019-03-29T21:33:17.710Z,51.92
2019-03-29T21:39:18.328Z,52.04
2019-03-29T21:45:29.122Z,51.38
2019-03-29T21:51:27.988Z,51.29
2019-03-29T21:57:28.173Z,50.50
2019-03-29T22:03:28.309Z,50.73
2019-03-29T22:09:36.783Z,50.28
2019-03-29T22:18:38.933Z,51.17
2019-03-29T22:24:17.261Z,51.46
2019-03-29T22:30:08.365Z,52.22
2019-03-29T22:35:55.990Z,52.79
2019-03-29T22:41:44.656Z,53.41
2019-03-29T22:47:32.487Z,53.67
2019-03-29T22:53:20.950Z,54.08
2019-03-29T22:59:09.805Z,54.44
2019-03-29T23:04:59.064Z,54.56
2019-03-29T23:10:47.613Z,54.18
2019-03-29T23:19:54.581Z,54.74
2019-03-29T23:25:57.571Z,54.24
2019-03-29T23:31:57.289Z,54.51
2019-03-29T23:37:58.079Z,54.30
2019-03-29T23:43:59.830Z,54.84
2019-03-29T23:49:53.391Z,56.31
2019-03-29T23:55:55.958Z,56.61
